createdAt,value
2023-05-10T00:00:49.826Z,53.84
2023-05-10T00:03:18.587Z,54.16
2023-05-10T00:05:47.289Z,54.60
2023-05-10T00:08:16.097Z,54.58
2023-05-10T00:10:44.739Z,54.89
2023-05-10T00:13:13.654Z,55.15
2023-05-10T00:15:42.820Z,55.37
2023-05-10T00:18:11.562Z,55.75
2023-05-10T00:20:40.245Z,55.91
2023-05-10T00:23:08.874Z,56.36
2023-05-10T00:25:37.529Z,56.55
2023-05-10T00:28:06.208Z,56.66
2023-05-10T00:30:34.885Z,56.80
2023-05-10T00:33:04.432Z,57.21
2023-05-10T00:35:33.142Z,57.16
2023-05-10T00:38:01.793Z,57.25
2023-05-10T00:40:31.604Z,57.53
2023-05-10T00:43:01.517Z,57.68
2023-05-10T00:45:33.410Z,58.25
2023-05-10T00:48:03.722Z,57.92
2023-05-10T00:50:33.801Z,58.28
2023-05-10T00:53:03.728Z,58.53
2023-05-10T00:55:32.598Z,58.90
2023-05-10T00:58:01.364Z,58.86
2023-05-10T01:00:30.641Z,59.16
2023-05-10T01:02:59.589Z,59.62
2023-05-10T01:05:28.544Z,59.69
2023-05-10T01:07:57.449Z,60.12
2023-05-10T01:10:26.562Z,60.24
2023-05-10T01:12:55.849Z,60.56
2023-05-10T01:15:24.899Z,60.94
2023-05-10T01:17:55.194Z,60.92
2023-05-10T01:20:25.127Z,61.20
2023-05-10T01:23:21.931Z,62.08
2023-05-10T01:25:59.755Z,62.80
2023-05-10T01:28:32.098Z,63.17
2023-05-10T01:31:28.261Z,63.70
2023-05-10T01:34:02.037Z,64.03
2023-05-10T01:36:41.630Z,64.48
2023-05-10T01:39:18.246Z,65.20
2023-05-10T01:42:14.303Z,65.62
2023-05-10T01:45:13.579Z,66.13
2023-05-10T01:47:50.211Z,66.31
2023-05-10T01:50:26.446Z,66.33
2023-05-10T01:53:00.115Z,66.98
2023-05-10T01:55:33.242Z,67.24
2023-05-10T01:58:11.041Z,67.36
2023-05-10T02:00:44.693Z,67.63
2023-05-10T02:03:16.133Z,68.08
2023-05-10T02:05:47.709Z,68.39
2023-05-10T02:08:18.543Z,68.76
2023-05-10T02:10:48.778Z,68.52
2023-05-10T02:13:19.178Z,68.63
2023-05-10T02:15:49.748Z,69.00
2023-05-10T02:18:19.453Z,69.45
2023-05-10T02:20:48.757Z,69.54
2023-05-10T02:23:18.474Z,70.02
2023-05-10T02:25:49.393Z,69.98
2023-05-10T02:28:19.277Z,70.22
2023-05-10T02:30:48.526Z,70.38
2023-05-10T02:33:18.268Z,70.25
2023-05-10T02:35:47.976Z,70.34
2023-05-10T02:38:17.592Z,70.65
2023-05-10T02:40:48.682Z,70.93
2023-05-10T02:43:19.382Z,70.80
2023-05-10T02:45:49.162Z,70.69
2023-05-10T02:48:18.265Z,70.71
2023-05-10T02:50:52.408Z,70.73
2023-05-10T02:53:24.698Z,70.95
2023-05-10T02:55:56.756Z,70.54
2023-05-10T02:58:26.431Z,70.63
2023-05-10T03:00:55.161Z,70.86
2023-05-10T03:03:23.807Z,70.79
2023-05-10T03:05:54.822Z,70.69
2023-05-10T03:08:24.825Z,70.88
2023-05-10T03:11:07.563Z,70.82
2023-05-10T03:14:26.464Z,70.60
2023-05-10T03:17:08.195Z,70.68
2023-05-10T03:19:56.627Z,71.06
2023-05-10T03:22:41.884Z,71.09
2023-05-10T03:25:13.297Z,71.39
2023-05-10T03:27:44.354Z,71.46
2023-05-10T03:30:14.465Z,71.35
2023-05-10T03:32:43.421Z,71.71
2023-05-10T03:35:14.390Z,71.64
2023-05-10T03:37:43.089Z,71.84
2023-05-10T03:40:12.226Z,72.42
2023-05-10T03:42:40.920Z,72.60
2023-05-10T03:45:10.731Z,72.70
2023-05-10T03:47:39.480Z,72.58
2023-05-10T03:50:08.791Z,72.52
2023-05-10T03:52:39.979Z,72.81
2023-05-10T03:55:08.912Z,72.57
2023-05-10T03:57:37.587Z,72.56
2023-05-10T04:00:07.105Z,72.21
2023-05-10T04:02:35.893Z,72.05
2023-05-10T04:05:05.330Z,71.76
2023-05-10T04:07:33.997Z,71.26
2023-05-10T04:10:02.866Z,71.34
2023-05-10T04:12:31.669Z,70.78
2023-05-10T04:15:00.357Z,70.36
2023-05-10T04:17:29.329Z,70.01
2023-05-10T04:19:58.015Z,69.98
2023-05-10T04:22:26.836Z,69.40
2023-05-10T04:24:55.514Z,69.22
2023-05-10T04:27:24.144Z,68.45
2023-05-10T04:29:52.770Z,67.75
2023-05-10T04:32:21.571Z,66.45
2023-05-10T04:34:51.918Z,66.56
2023-05-10T04:37:22.328Z,65.42
2023-05-10T04:39:51.250Z,65.11
2023-05-10T04:42:19.917Z,64.74
2023-05-10T04:44:48.582Z,64.40
2023-05-10T04:47:17.363Z,64.42
2023-05-10T04:49:46.388Z,63.56
2023-05-10T04:52:16.141Z,62.67
2023-05-10T04:54:44.833Z,63.34
2023-05-10T04:57:13.496Z,62.48
2023-05-10T04:59:42.272Z,62.08
2023-05-10T05:02:10.979Z,61.64
2023-05-10T05:04:39.760Z,61.35
2023-05-10T05:07:08.427Z,60.86
2023-05-10T05:09:37.251Z,60.22
2023-05-10T05:12:06.237Z,60.18
2023-05-10T05:14:34.945Z,60.23
2023-05-10T05:17:03.729Z,59.96
2023-05-10T05:19:32.824Z,59.49
2023-05-10T05:22:01.477Z,58.96
2023-05-10T05:24:30.205Z,58.27
2023-05-10T05:26:58.885Z,58.40
2023-05-10T05:29:27.548Z,58.11
2023-05-10T05:31:56.395Z,58.02
2023-05-10T05:34:25.404Z,57.86
2023-05-10T05:36:54.859Z,57.84
2023-05-10T05:39:23.586Z,56.84
2023-05-10T05:41:52.253Z,56.61
2023-05-10T05:44:20.925Z,56.02
2023-05-10T05:46:49.540Z,56.15
2023-05-10T05:49:18.202Z,56.43
2023-05-10T05:51:46.915Z,55.94
2023-05-10T05:54:15.609Z,55.33
2023-05-10T05:56:45.355Z,55.30
2023-05-10T05:59:14.035Z,55.20
2023-05-10T06:01:42.685Z,54.92
2023-05-10T06:04:11.524Z,54.67
2023-05-10T06:06:40.224Z,54.21
2023-05-10T06:09:09.734Z,53.68
2023-05-10T06:11:38.796Z,53.42
2023-05-10T06:14:08.857Z,53.20
2023-05-10T06:16:37.818Z,52.66
2023-05-10T06:19:06.729Z,53.11
2023-05-10T06:21:35.440Z,51.85
2023-05-10T06:24:04.400Z,51.60
2023-05-10T06:26:34.585Z,52.27
2023-05-10T06:29:03.624Z,51.42
2023-05-10T06:31:32.336Z,50.27
2023-05-10T06:34:01.125Z,49.68
2023-05-10T06:36:29.800Z,50.30
2023-05-10T06:38:58.462Z,50.00
2023-05-10T06:41:27.112Z,49.53
2023-05-10T06:43:55.755Z,49.76
2023-05-10T06:46:24.443Z,49.34
2023-05-10T06:48:53.296Z,48.45
2023-05-10T06:51:22.353Z,48.39
2023-05-10T06:53:51.000Z,47.12
2023-05-10T06:56:22.425Z,46.91
2023-05-10T06:58:51.121Z,46.90
2023-05-10T07:01:20.053Z,46.92
2023-05-10T07:03:48.953Z,45.74
2023-05-10T07:06:29.323Z,46.01
2023-05-10T07:09:02.144Z,46.12
2023-05-10T07:11:30.846Z,45.41
2023-05-10T07:13:59.552Z,45.85
2023-05-10T07:16:28.221Z,45.28
2023-05-10T07:18:56.940Z,45.55
2023-05-10T07:21:25.823Z,45.70
2023-05-10T07:23:54.549Z,44.60
2023-05-10T07:26:23.192Z,44.12
2023-05-10T07:28:51.868Z,44.37
2023-05-10T07:31:20.640Z,44.32
2023-05-10T07:33:49.320Z,44.85
2023-05-10T07:36:18.035Z,44.68
2023-05-10T07:38:46.691Z,44.39
2023-05-10T07:41:15.397Z,44.20
2023-05-10T07:43:44.392Z,43.47
2023-05-10T07:46:13.217Z,42.70
2023-05-10T07:48:42.516Z,42.79
2023-05-10T07:51:11.736Z,43.22
2023-05-10T07:53:40.411Z,41.63
2023-05-10T07:56:28.222Z,42.13
2023-05-10T07:58:57.489Z,41.86
2023-05-10T08:01:26.666Z,41.53
2023-05-10T08:03:55.430Z,41.55
2023-05-10T08:06:24.318Z,40.69
2023-05-10T08:08:54.631Z,41.56
2023-05-10T08:11:23.705Z,40.43
2023-05-10T08:13:52.872Z,40.30
2023-05-10T08:16:21.677Z,40.20
2023-05-10T08:18:51.784Z,40.01
2023-05-10T08:21:20.566Z,39.80
2023-05-10T08:23:50.066Z,39.38
2023-05-10T08:26:18.786Z,39.23
2023-05-10T08:28:47.447Z,38.63
2023-05-10T08:31:16.924Z,38.65
2023-05-10T08:33:45.858Z,38.75
2023-05-10T08:36:20.754Z,38.26
2023-05-10T08:38:53.080Z,37.66
2023-05-10T08:41:24.821Z,36.74
2023-05-10T08:43:54.916Z,36.19
2023-05-10T08:46:24.190Z,36.03
2023-05-10T08:48:54.644Z,36.23
2023-05-10T08:51:27.737Z,35.61
2023-05-10T08:53:56.562Z,34.94
2023-05-10T08:56:25.565Z,35.36
2023-05-10T08:58:54.370Z,34.75
2023-05-10T09:01:23.948Z,34.74
2023-05-10T09:03:53.277Z,34.90
2023-05-10T09:06:22.096Z,34.63
2023-05-10T09:08:51.596Z,34.08
2023-05-10T09:11:21.349Z,33.89
2023-05-10T09:13:52.631Z,34.02
2023-05-10T09:16:22.587Z,34.10
2023-05-10T09:18:51.645Z,33.95
2023-05-10T09:21:21.592Z,34.08
2023-05-10T09:23:51.221Z,33.82
2023-05-10T09:26:23.782Z,33.31
2023-05-10T09:28:58.728Z,32.56
2023-05-10T09:31:48.073Z,32.95
2023-05-10T09:34:19.080Z,32.26
2023-05-10T09:36:52.446Z,32.49
2023-05-10T09:39:21.621Z,32.70
2023-05-10T09:41:50.419Z,31.81
2023-05-10T09:44:20.126Z,31.64
2023-05-10T09:46:53.782Z,32.10
2023-05-10T09:49:23.180Z,31.39
2023-05-10T09:52:03.600Z,31.53
2023-05-10T09:54:33.176Z,31.31
2023-05-10T09:57:02.792Z,31.54
2023-05-10T09:59:35.829Z,31.07
2023-05-10T10:02:05.302Z,30.96
2023-05-10T10:04:40.648Z,30.54
2023-05-10T10:07:09.638Z,30.80
2023-05-10T10:09:39.412Z,31.43
2023-05-10T10:12:08.030Z,31.43
2023-05-10T10:14:36.916Z,30.88
2023-05-10T10:17:08.771Z,31.06
2023-05-10T10:19:38.327Z,31.42
2023-05-10T10:22:07.353Z,31.58
2023-05-10T10:24:36.182Z,32.00
2023-05-10T10:27:27.935Z,30.81
2023-05-10T10:30:14.866Z,30.98
2023-05-10T10:33:26.815Z,31.19
2023-05-10T10:36:00.347Z,31.17
2023-05-10T10:39:03.022Z,31.00
2023-05-10T10:41:33.609Z,31.15
2023-05-10T10:44:42.577Z,31.13
2023-05-10T10:47:25.207Z,30.67
2023-05-10T10:50:06.175Z,30.24
2023-05-10T10:52:37.154Z,30.33
2023-05-10T10:55:20.152Z,30.60
2023-05-10T10:57:55.890Z,30.92
2023-05-10T11:00:32.403Z,30.90
2023-05-10T11:03:09.654Z,30.05
2023-05-10T11:05:42.617Z,29.55
2023-05-10T11:08:14.735Z,29.82
2023-05-10T11:11:04.426Z,30.00
2023-05-10T11:13:44.065Z,30.10
2023-05-10T11:16:18.685Z,29.95
2023-05-10T11:19:03.510Z,29.86
2023-05-10T11:21:33.644Z,30.35
2023-05-10T11:24:06.789Z,30.72
2023-05-10T11:26:37.016Z,30.88
2023-05-10T11:29:06.169Z,30.37
2023-05-10T11:31:35.688Z,29.71
2023-05-10T11:34:04.456Z,30.18
2023-05-10T11:36:37.400Z,29.87
2023-05-10T11:39:07.088Z,29.90
2023-05-10T11:41:36.468Z,29.47
2023-05-10T11:44:05.477Z,29.42
2023-05-10T11:46:34.340Z,29.33
2023-05-10T11:49:05.411Z,29.65
2023-05-10T11:51:40.345Z,29.86
2023-05-10T11:54:11.140Z,29.30
2023-05-10T11:56:41.364Z,29.26
2023-05-10T11:59:10.249Z,29.86
2023-05-10T12:01:39.039Z,28.93
2023-05-10T12:04:07.986Z,29.48
2023-05-10T12:06:41.895Z,30.18
2023-05-10T12:09:11.357Z,29.84
2023-05-10T12:11:43.911Z,29.28
2023-05-10T12:14:13.263Z,29.04
2023-05-10T12:16:44.165Z,29.50
2023-05-10T12:19:12.962Z,29.16
2023-05-10T12:21:42.493Z,29.77
2023-05-10T12:24:11.565Z,29.12
2023-05-10T12:29:26.636Z,29.73
2023-05-10T12:32:00.428Z,29.98
2023-05-10T12:34:33.012Z,29.89
2023-05-10T12:37:02.936Z,30.03
2023-05-10T12:39:47.049Z,30.57
2023-05-10T12:42:15.793Z,31.25
2023-05-10T12:44:44.784Z,30.29
2023-05-10T12:47:13.457Z,30.16
2023-05-10T12:49:42.158Z,30.41
2023-05-10T12:52:10.934Z,30.32
2023-05-10T12:54:39.596Z,30.00
2023-05-10T12:57:08.277Z,30.27
2023-05-10T12:59:38.206Z,30.58
2023-05-10T13:02:07.994Z,30.07
2023-05-10T13:04:40.503Z,29.77
2023-05-10T13:07:11.077Z,29.57
2023-05-10T13:09:41.126Z,30.08
2023-05-10T13:12:10.348Z,29.74
2023-05-10T13:14:41.369Z,29.12
2023-05-10T13:17:13.153Z,29.74
2023-05-10T13:19:41.849Z,29.54
2023-05-10T13:22:10.634Z,29.94
2023-05-10T13:24:39.249Z,29.90
2023-05-10T13:27:07.921Z,30.48
2023-05-10T13:29:36.583Z,29.46
2023-05-10T13:32:05.611Z,29.07
2023-05-10T13:34:34.386Z,29.38
2023-05-10T13:37:03.250Z,29.22
2023-05-10T13:39:34.364Z,29.48
2023-05-10T13:42:04.001Z,29.94
2023-05-10T13:44:34.673Z,30.11
2023-05-10T13:47:04.520Z,30.17
2023-05-10T13:49:33.244Z,30.14
2023-05-10T13:52:07.775Z,29.98
2023-05-10T13:54:40.069Z,29.70
2023-05-10T13:57:08.743Z,30.04
2023-05-10T13:59:37.388Z,29.55
2023-05-10T14:02:06.830Z,30.20
2023-05-10T14:04:36.570Z,30.74
2023-05-10T14:07:05.707Z,30.85
2023-05-10T14:09:34.743Z,30.76
2023-05-10T14:12:03.567Z,30.82
2023-05-10T14:14:32.325Z,31.04
2023-05-10T14:17:01.254Z,30.66
2023-05-10T14:19:33.415Z,30.86
2023-05-10T14:22:02.101Z,31.23
2023-05-10T14:24:30.843Z,31.18
2023-05-10T14:26:59.726Z,31.00
2023-05-10T14:29:28.500Z,31.10
2023-05-10T14:31:57.244Z,31.33
2023-05-10T14:34:26.007Z,31.51
2023-05-10T14:36:54.693Z,31.67
2023-05-10T14:39:23.863Z,31.36
2023-05-10T14:41:53.231Z,31.09
2023-05-10T14:44:21.898Z,31.36
2023-05-10T14:46:50.713Z,31.94
2023-05-10T14:49:19.435Z,31.96
2023-05-10T14:51:48.300Z,32.02
2023-05-10T14:54:16.956Z,32.66
2023-05-10T14:56:46.128Z,32.40
2023-05-10T14:59:14.759Z,32.55
2023-05-10T15:01:44.097Z,32.18
2023-05-10T15:04:14.443Z,32.30
2023-05-10T15:06:43.722Z,32.46
2023-05-10T15:09:12.361Z,32.21
2023-05-10T15:11:41.477Z,32.97
2023-05-10T15:14:10.599Z,32.29
2023-05-10T15:16:39.596Z,32.72
2023-05-10T15:19:08.575Z,32.61
2023-05-10T15:21:39.967Z,32.44
2023-05-10T15:24:09.366Z,32.99
2023-05-10T15:26:38.433Z,33.67
2023-05-10T15:29:07.184Z,33.85
2023-05-10T15:31:37.092Z,34.26
2023-05-10T15:34:05.893Z,34.27
2023-05-10T15:36:34.527Z,33.73
2023-05-10T15:39:03.923Z,33.78
2023-05-10T15:41:32.689Z,32.79
2023-05-10T15:44:01.776Z,32.82
2023-05-10T15:46:31.295Z,32.82
2023-05-10T15:49:00.347Z,32.61
2023-05-10T15:51:29.015Z,33.13
2023-05-10T15:54:06.503Z,33.52
2023-05-10T15:56:37.078Z,33.65
2023-05-10T15:59:10.681Z,33.90
2023-05-10T16:01:39.641Z,34.13
2023-05-10T16:04:08.680Z,34.69
2023-05-10T16:06:37.987Z,34.47
2023-05-10T16:09:06.689Z,34.52
2023-05-10T16:11:35.426Z,34.16
2023-05-10T16:14:05.635Z,34.41
2023-05-10T16:16:35.756Z,35.33
2023-05-10T16:19:04.951Z,35.21
2023-05-10T16:21:33.780Z,34.76
2023-05-10T16:24:03.500Z,35.03
2023-05-10T16:26:32.174Z,35.35
2023-05-10T16:29:00.839Z,35.32
2023-05-10T16:31:29.588Z,35.53
2023-05-10T16:33:58.383Z,35.76
2023-05-10T16:36:27.472Z,35.60
2023-05-10T16:38:56.631Z,35.59
2023-05-10T16:41:26.506Z,36.08
2023-05-10T16:43:55.311Z,36.08
2023-05-10T16:46:24.454Z,36.07
2023-05-10T16:48:53.508Z,36.27
2023-05-10T16:51:22.184Z,36.09
2023-05-10T16:53:50.824Z,36.39
2023-05-10T16:56:21.749Z,36.04
2023-05-10T16:58:50.747Z,36.06
2023-05-10T17:01:19.595Z,36.23
2023-05-10T17:03:48.300Z,36.17
2023-05-10T17:06:17.013Z,36.06
2023-05-10T17:08:45.715Z,36.50
2023-05-10T17:11:14.465Z,36.49
2023-05-10T17:13:43.136Z,36.53
2023-05-10T17:16:12.570Z,36.67
2023-05-10T17:18:42.650Z,36.72
2023-05-10T17:21:11.466Z,37.18
2023-05-10T17:23:40.404Z,36.69
2023-05-10T17:26:09.250Z,37.35
2023-05-10T17:28:38.115Z,37.12
2023-05-10T17:31:06.921Z,37.53
2023-05-10T17:33:35.650Z,37.76
2023-05-10T17:36:04.399Z,37.69
2023-05-10T17:38:33.068Z,37.93
2023-05-10T17:41:02.330Z,37.78
2023-05-10T17:43:31.076Z,37.74
2023-05-10T17:45:59.952Z,38.33
2023-05-10T17:48:28.685Z,38.48
2023-05-10T17:50:57.554Z,39.17
2023-05-10T17:53:26.220Z,39.01
2023-05-10T17:55:58.894Z,39.07
2023-05-10T17:58:28.799Z,39.39
2023-05-10T18:00:57.646Z,40.04
2023-05-10T18:03:26.965Z,39.76
2023-05-10T18:05:55.907Z,40.14
2023-05-10T18:08:27.321Z,40.34
2023-05-10T18:10:57.097Z,40.33
2023-05-10T18:13:25.882Z,40.65
2023-05-10T18:15:54.722Z,40.96
2023-05-10T18:18:23.486Z,41.61
2023-05-10T18:20:57.219Z,41.56
2023-05-10T18:23:26.352Z,41.69
2023-05-10T18:25:55.088Z,41.87
2023-05-10T18:28:24.585Z,41.88
2023-05-10T18:30:53.383Z,41.78
2023-05-10T18:33:22.164Z,42.56
2023-05-10T18:35:50.965Z,42.56
2023-05-10T18:38:20.108Z,42.59
2023-05-10T18:40:48.811Z,43.09
2023-05-10T18:43:17.456Z,42.90
2023-05-10T18:45:46.319Z,43.49
2023-05-10T18:48:15.012Z,44.38
2023-05-10T18:50:43.712Z,44.22
2023-05-10T18:53:12.345Z,44.22
2023-05-10T18:55:41.264Z,44.48
2023-05-10T18:58:09.963Z,44.21
2023-05-10T19:00:38.603Z,44.25
2023-05-10T19:03:07.896Z,44.71
2023-05-10T19:05:36.594Z,44.80
2023-05-10T19:08:05.308Z,44.75
2023-05-10T19:10:33.996Z,45.03
2023-05-10T19:13:02.632Z,44.85
2023-05-10T19:15:31.693Z,45.12
2023-05-10T19:18:00.537Z,44.81
2023-05-10T19:20:29.702Z,44.91
2023-05-10T19:23:09.889Z,44.96
2023-05-10T19:25:39.743Z,45.23
2023-05-10T19:28:10.950Z,45.05
2023-05-10T19:30:39.646Z,44.82
2023-05-10T19:33:10.179Z,44.65
2023-05-10T19:35:39.860Z,44.75
2023-05-10T19:38:08.750Z,44.46
2023-05-10T19:40:37.510Z,44.61
2023-05-10T19:43:06.245Z,44.47
2023-05-10T19:45:35.511Z,44.92
2023-05-10T19:48:04.318Z,44.39
2023-05-10T19:50:33.083Z,45.19
2023-05-10T19:53:01.969Z,45.27
2023-05-10T19:55:32.145Z,44.98
2023-05-10T19:58:00.864Z,44.96
2023-05-10T20:00:29.691Z,45.07
2023-05-10T20:02:58.762Z,44.62
2023-05-10T20:05:29.365Z,44.68
2023-05-10T20:07:58.065Z,44.89
2023-05-10T20:10:27.227Z,44.60
2023-05-10T20:12:56.117Z,44.41
2023-05-10T20:15:24.854Z,44.66
2023-05-10T20:17:54.016Z,44.46
2023-05-10T20:20:23.677Z,44.19
2023-05-10T20:22:52.433Z,44.59
2023-05-10T20:25:21.232Z,44.45
2023-05-10T20:27:50.963Z,44.48
2023-05-10T20:30:19.997Z,44.48
2023-05-10T20:32:49.152Z,44.81
2023-05-10T20:35:18.059Z,44.78
2023-05-10T20:37:48.378Z,44.67
2023-05-10T20:40:17.588Z,44.77
2023-05-10T20:42:47.539Z,44.69
2023-05-10T20:45:16.394Z,44.55
2023-05-10T20:47:45.107Z,44.86
2023-05-10T20:50:13.768Z,45.13
2023-05-10T20:52:42.524Z,45.63
2023-05-10T20:55:11.292Z,45.40
2023-05-10T20:57:40.034Z,45.29
2023-05-10T21:00:10.448Z,45.82
2023-05-10T21:02:43.368Z,45.79
2023-05-10T21:05:12.334Z,45.91
2023-05-10T21:07:41.047Z,46.18
2023-05-10T21:10:11.472Z,46.48
2023-05-10T21:12:40.154Z,46.81
2023-05-10T21:15:09.364Z,46.87
2023-05-10T21:17:38.029Z,46.62
2023-05-10T21:20:07.647Z,47.45
2023-05-10T21:22:36.490Z,48.00
2023-05-10T21:25:06.304Z,48.39
2023-05-10T21:27:35.168Z,48.41
2023-05-10T21:30:04.207Z,49.13
2023-05-10T21:32:33.015Z,49.23
2023-05-10T21:35:01.781Z,49.40
2023-05-10T21:37:30.448Z,49.86
2023-05-10T21:39:59.139Z,49.20
2023-05-10T21:42:27.794Z,49.26
2023-05-10T21:44:56.846Z,49.57
2023-05-10T21:47:25.550Z,50.30
2023-05-10T21:49:54.265Z,50.10
2023-05-10T21:52:22.930Z,50.46
2023-05-10T21:54:51.598Z,50.87
2023-05-10T21:57:21.497Z,50.72
2023-05-10T21:59:50.208Z,50.97
2023-05-10T22:02:18.971Z,51.35
2023-05-10T22:04:47.869Z,51.01
2023-05-10T22:07:17.000Z,51.20
2023-05-10T22:09:46.029Z,50.70
2023-05-10T22:12:14.742Z,50.61
2023-05-10T22:14:43.476Z,50.81
2023-05-10T22:17:12.293Z,50.41
2023-05-10T22:19:41.135Z,50.26
2023-05-10T22:22:09.872Z,50.22
2023-05-10T22:24:38.641Z,50.23
2023-05-10T22:27:07.360Z,50.24
2023-05-10T22:29:36.210Z,50.25
2023-05-10T22:32:06.365Z,50.67
2023-05-10T22:34:38.658Z,50.20
2023-05-10T22:37:07.805Z,50.93
2023-05-10T22:39:36.463Z,51.07
2023-05-10T22:42:05.174Z,50.86
2023-05-10T22:44:33.850Z,51.49
2023-05-10T22:47:02.687Z,51.64
2023-05-10T22:49:32.403Z,51.51
2023-05-10T22:52:01.495Z,51.51
2023-05-10T22:54:30.271Z,51.65
2023-05-10T22:56:59.091Z,51.96
2023-05-10T22:59:28.721Z,52.24
2023-05-10T23:01:57.495Z,52.71
2023-05-10T23:04:26.337Z,53.04
2023-05-10T23:06:55.093Z,53.35
2023-05-10T23:09:23.749Z,53.57
2023-05-10T23:11:52.443Z,54.15
2023-05-10T23:14:21.119Z,54.21
2023-05-10T23:16:49.813Z,54.18
2023-05-10T23:19:19.148Z,54.20
2023-05-10T23:21:47.791Z,54.20
2023-05-10T23:24:16.557Z,54.57
2023-05-10T23:26:46.608Z,54.79
2023-05-10T23:29:15.414Z,55.14
2023-05-10T23:31:46.282Z,55.32
2023-05-10T23:34:15.095Z,55.43
2023-05-10T23:36:43.765Z,55.31
2023-05-10T23:39:12.543Z,55.25
2023-05-10T23:41:41.835Z,55.55
2023-05-10T23:44:10.503Z,55.40
2023-05-10T23:46:39.143Z,55.83
2023-05-10T23:49:07.838Z,55.80
2023-05-10T23:51:36.540Z,55.94
2023-05-10T23:54:05.400Z,56.02
2023-05-10T23:56:34.477Z,55.93
2023-05-10T23:59:03.156Z,55.87
